Time;durP1;ratioP1;P1;durP2;ratioP2;P2;SDS_P1;SDS_P2;PMS_P1;PMS_P2;Temp;Humidity;BMP_temperature;BMP_pressure;BME280_temperature;BME280_humidity;BME280_pressure;Samples;Min_cycle;Max_cycle;Signal;HPM_P1;HPM_P2
2023/01/29 00:00:02;;;;;;;17.35;15.02;;;;;;;;;;4871285;28;100014;-77
2023/01/29 00:02:37;;;;;;;18.83;14.52;;;;;;;;;;4877889;28;98658;-77
2023/01/29 00:05:05;;;;;;;22.63;15.68;;;;;;;;;;4873586;28;98894;-77
2023/01/29 00:07:52;;;;;;;19.27;15.25;;;;;;;;;;4874866;28;99019;-77
2023/01/29 00:10:18;;;;;;;22.25;14.65;;;;;;;;;;4879871;28;98310;-77
2023/01/29 00:12:44;;;;;;;20.75;16.42;;;;;;;;;;4873442;28;99742;-77
2023/01/29 00:15:11;;;;;;;19.25;14.95;;;;;;;;;;4874123;28;100341;-77
2023/01/29 00:17:37;;;;;;;21.80;15.45;;;;;;;;;;4882297;28;98318;-76
2023/01/29 00:20:04;;;;;;;20.63;16.38;;;;;;;;;;4879189;28;100302;-76
2023/01/29 00:22:30;;;;;;;17.35;15.20;;;;;;;;;;4881149;28;98332;-76
2023/01/29 00:24:57;;;;;;;20.98;16.27;;;;;;;;;;4874741;28;98593;-76
2023/01/29 00:27:23;;;;;;;20.25;16.00;;;;;;;;;;4885575;28;100101;-77
2023/01/29 00:30:08;;;;;;;18.38;15.45;;;;;;;;;;4890376;28;98340;-77
2023/01/29 00:32:35;;;;;;;22.52;17.10;;;;;;;;;;4876514;28;98532;-75
2023/01/29 00:35:01;;;;;;;20.38;17.00;;;;;;;;;;4887815;28;99522;-75
2023/01/29 00:37:27;;;;;;;22.13;16.58;;;;;;;;;;4887139;28;99310;-76
2023/01/29 00:39:54;;;;;;;23.25;18.05;;;;;;;;;;4882870;28;98435;-76
2023/01/29 00:45:05;;;;;;;21.45;17.13;;;;;;;;;;4872492;28;98860;-76
2023/01/29 00:47:35;;;;;;;22.52;17.38;;;;;;;;;;4874137;28;99004;-75
2023/01/29 00:50:02;;;;;;;21.75;17.52;;;;;;;;;;4877334;28;98311;-75
2023/01/29 00:52:29;;;;;;;23.75;18.67;;;;;;;;;;4891518;28;99514;-76
2023/01/29 00:54:57;;;;;;;22.58;18.38;;;;;;;;;;4891064;28;98811;-76
2023/01/29 00:57:24;;;;;;;21.52;16.88;;;;;;;;;;4872663;28;98868;-76
2023/01/29 00:59:52;;;;;;;20.95;18.70;;;;;;;;;;4875284;28;99491;-76
2023/01/29 01:05:06;;;;;;;22.70;16.60;;;;;;;;;;4878927;28;98259;-77
2023/01/29 01:07:33;;;;;;;23.75;18.20;;;;;;;;;;4889456;28;99687;-77
2023/01/29 01:12:44;;;;;;;23.67;17.30;;;;;;;;;;4870999;28;98259;-76
2023/01/29 01:15:10;;;;;;;21.20;17.30;;;;;;;;;;4883013;28;99999;-76
2023/01/29 01:17:39;;;;;;;19.92;16.50;;;;;;;;;;4893356;28;98679;-77
2023/01/29 01:20:07;;;;;;;23.25;17.73;;;;;;;;;;4872960;28;101107;-76
2023/01/29 01:22:34;;;;;;;21.17;17.45;;;;;;;;;;4879529;28;99334;-76
2023/01/29 01:25:01;;;;;;;17.63;15.50;;;;;;;;;;4895570;28;98437;-77
2023/01/29 01:27:27;;;;;;;22.38;16.85;;;;;;;;;;4878623;28;100148;-77
2023/01/29 01:29:53;;;;;;;20.85;16.35;;;;;;;;;;4879562;28;98267;-77
2023/01/29 01:32:20;;;;;;;21.85;16.23;;;;;;;;;;4883591;28;98431;-77
2023/01/29 01:34:46;;;;;;;23.27;16.55;;;;;;;;;;4884309;28;101580;-75
2023/01/29 01:37:13;;;;;;;19.95;15.80;;;;;;;;;;4884527;28;98248;-76
2023/01/29 01:39:39;;;;;;;23.45;15.95;;;;;;;;;;4898831;28;100938;-77
2023/01/29 01:42:10;;;;;;;18.00;15.40;;;;;;;;;;4888516;28;99941;-77
2023/01/29 01:44:52;;;;;;;21.05;15.75;;;;;;;;;;4872867;28;98176;-76
2023/01/29 01:47:21;;;;;;;19.35;15.90;;;;;;;;;;4891033;28;100984;-77
2023/01/29 01:49:47;;;;;;;19.50;15.98;;;;;;;;;;4871596;28;98364;-78
2023/01/29 01:52:15;;;;;;;18.13;15.30;;;;;;;;;;4882465;28;98251;-77
2023/01/29 01:54:43;;;;;;;19.95;15.68;;;;;;;;;;4884387;28;100087;-75
2023/01/29 01:57:14;;;;;;;17.95;14.98;;;;;;;;;;4889332;28;98341;-76
2023/01/29 01:59:45;;;;;;;17.98;15.27;;;;;;;;;;4894771;28;98512;-76
2023/01/29 02:10:31;;;;;;;21.05;15.25;;;;;;;;;;4884137;28;98187;-76
2023/01/29 02:12:57;;;;;;;23.60;17.13;;;;;;;;;;4890455;28;101012;-76
2023/01/29 02:15:24;;;;;;;21.85;16.17;;;;;;;;;;4883283;28;99484;-78
2023/01/29 02:17:50;;;;;;;18.67;16.27;;;;;;;;;;4888010;28;98356;-77
2023/01/29 02:20:23;;;;;;;17.85;15.45;;;;;;;;;;4885423;28;99812;-75
2023/01/29 02:23:12;;;;;;;22.13;16.73;;;;;;;;;;4897659;28;101369;-76
2023/01/29 02:25:57;;;;;;;18.98;16.48;;;;;;;;;;4881192;28;98339;-76
2023/01/29 02:28:30;;;;;;;26.33;16.65;;;;;;;;;;4878944;28;98543;-78
2023/01/29 02:31:05;;;;;;;21.00;15.45;;;;;;;;;;4890791;28;99200;-77
2023/01/29 02:33:40;;;;;;;18.85;16.85;;;;;;;;;;4878107;28;98483;-76
2023/01/29 02:36:14;;;;;;;22.75;16.50;;;;;;;;;;4890626;28;101924;-76
2023/01/29 02:38:41;;;;;;;20.00;16.90;;;;;;;;;;4871294;28;98414;-76
2023/01/29 02:41:14;;;;;;;20.15;15.30;;;;;;;;;;4881102;28;100716;-76
2023/01/29 02:43:43;;;;;;;19.92;16.70;;;;;;;;;;4874609;28;98964;-76
2023/01/29 02:46:14;;;;;;;18.17;15.52;;;;;;;;;;4881339;28;98312;-76
2023/01/29 02:48:58;;;;;;;20.38;16.65;;;;;;;;;;4881143;28;98275;-76
2023/01/29 02:51:43;;;;;;;19.95;16.67;;;;;;;;;;4889247;28;98908;-74
2023/01/29 02:54:19;;;;;;;25.92;17.80;;;;;;;;;;4886820;28;98732;-77
2023/01/29 02:56:49;;;;;;;30.77;20.17;;;;;;;;;;4900258;28;100579;-76
2023/01/29 02:59:18;;;;;;;25.10;18.88;;;;;;;;;;4881689;28;98570;-76
2023/01/29 03:01:47;;;;;;;23.40;18.73;;;;;;;;;;4879726;28;98303;-76
2023/01/29 03:04:17;;;;;;;25.23;19.02;;;;;;;;;;4897909;28;101805;-76
2023/01/29 03:06:50;;;;;;;21.48;18.92;;;;;;;;;;4893770;28;98283;-77
2023/01/29 03:09:26;;;;;;;21.83;17.35;;;;;;;;;;4873732;28;98416;-76
2023/01/29 03:11:57;;;;;;;23.40;18.35;;;;;;;;;;4889308;28;98778;-76
2023/01/29 03:15:10;;;;;;;22.00;17.33;;;;;;;;;;4877135;28;98311;-76
2023/01/29 03:17:17;;;;;;;23.23;17.25;;;;;;;;;;4906921;28;100343;-76
2023/01/29 03:19:45;;;;;;;25.02;17.98;;;;;;;;;;4878716;28;98430;-77
2023/01/29 03:22:22;;;;;;;21.88;17.92;;;;;;;;;;4897027;28;101461;-76
2023/01/29 03:33:31;;;;;;;28.98;17.08;;;;;;;;;;4874999;28;101153;-76
2023/01/29 03:36:01;;;;;;;22.83;17.42;;;;;;;;;;4897719;28;98427;-75
2023/01/29 03:38:31;;;;;;;25.05;19.77;;;;;;;;;;4880171;28;100194;-76
2023/01/29 03:41:18;;;;;;;26.33;19.80;;;;;;;;;;4894987;28;101619;-76
2023/01/29 03:43:56;;;;;;;22.95;19.25;;;;;;;;;;4903485;28;99785;-76
2023/01/29 03:46:33;;;;;;;29.92;18.83;;;;;;;;;;4888209;28;101299;-76
2023/01/29 03:49:15;;;;;;;29.83;20.48;;;;;;;;;;4890058;28;98276;-76
2023/01/29 03:51:49;;;;;;;26.63;20.42;;;;;;;;;;4885940;28;100381;-76
2023/01/29 03:54:15;;;;;;;25.00;19.77;;;;;;;;;;4878276;28;100235;-77
2023/01/29 03:56:55;;;;;;;26.83;20.58;;;;;;;;;;4873629;28;99267;-75
2023/01/29 03:59:40;;;;;;;28.13;20.20;;;;;;;;;;4879682;28;100504;-77
2023/01/29 04:02:39;;;;;;;26.17;20.92;;;;;;;;;;4873448;28;98687;-76
2023/01/29 04:05:12;;;;;;;26.95;20.25;;;;;;;;;;4889119;28;98173;-76
2023/01/29 04:07:51;;;;;;;27.35;21.23;;;;;;;;;;4896990;28;98865;-77
2023/01/29 04:10:20;;;;;;;27.02;18.40;;;;;;;;;;4870311;28;98940;-75
2023/01/29 04:12:51;;;;;;;30.45;20.77;;;;;;;;;;4893396;28;100880;-76
2023/01/29 04:15:19;;;;;;;26.20;21.52;;;;;;;;;;4871496;28;98834;-76
2023/01/29 04:17:50;;;;;;;30.30;21.90;;;;;;;;;;4888932;28;98310;-77
2023/01/29 04:20:23;;;;;;;31.02;22.92;;;;;;;;;;4887075;28;100777;-77
2023/01/29 04:22:50;;;;;;;25.85;21.27;;;;;;;;;;4869124;28;99583;-77
2023/01/29 04:25:27;;;;;;;25.45;20.85;;;;;;;;;;4899257;28;99187;-76
2023/01/29 04:28:10;;;;;;;26.98;21.83;;;;;;;;;;4903020;28;98933;-77
2023/01/29 04:30:41;;;;;;;25.42;21.20;;;;;;;;;;4872864;28;98452;-77
2023/01/29 04:33:20;;;;;;;28.27;21.35;;;;;;;;;;4870400;28;98440;-77
2023/01/29 04:35:47;;;;;;;29.17;21.20;;;;;;;;;;4874784;28;102756;-75
2023/01/29 04:38:18;;;;;;;25.30;20.73;;;;;;;;;;4874217;28;98984;-77
2023/01/29 04:40:56;;;;;;;28.92;20.90;;;;;;;;;;4883819;28;99416;-77
2023/01/29 04:43:27;;;;;;;18.55;14.75;;;;;;;;;;4884005;28;99175;-76
2023/01/29 04:45:59;;;;;;;26.27;20.75;;;;;;;;;;4878968;28;98160;-77
2023/01/29 04:48:29;;;;;;;28.23;21.40;;;;;;;;;;4883665;28;99734;-76
2023/01/29 04:51:22;;;;;;;26.02;21.95;;;;;;;;;;4876640;28;98713;-78
2023/01/29 04:53:58;;;;;;;24.83;20.15;;;;;;;;;;4880311;28;98740;-76
2023/01/29 04:56:32;;;;;;;26.85;21.38;;;;;;;;;;4889157;28;99094;-76
2023/01/29 04:59:08;;;;;;;27.77;22.27;;;;;;;;;;4883908;28;98363;-76
2023/01/29 05:01:36;;;;;;;32.95;20.92;;;;;;;;;;4885811;28;99849;-76
2023/01/29 05:04:08;;;;;;;28.40;21.38;;;;;;;;;;4885489;28;99938;-77
2023/01/29 05:06:35;;;;;;;26.83;20.50;;;;;;;;;;4900452;28;98223;-77
2023/01/29 05:09:02;;;;;;;26.02;21.50;;;;;;;;;;4891796;28;99542;-76
2023/01/29 05:11:29;;;;;;;29.48;22.55;;;;;;;;;;4888500;28;99981;-75
2023/01/29 05:13:56;;;;;;;28.98;20.83;;;;;;;;;;4882268;28;98739;-77
2023/01/29 05:16:26;;;;;;;32.63;22.33;;;;;;;;;;4883882;28;100071;-76
2023/01/29 05:18:52;;;;;;;26.75;21.75;;;;;;;;;;4878755;28;98762;-76
2023/01/29 05:21:19;;;;;;;32.67;21.92;;;;;;;;;;4872611;28;99491;-76
2023/01/29 05:23:52;;;;;;;25.25;20.42;;;;;;;;;;4872161;28;100041;-76
2023/01/29 05:29:04;;;;;;;31.27;22.80;;;;;;;;;;4890436;28;99605;-76
2023/01/29 05:31:30;;;;;;;27.98;21.55;;;;;;;;;;4878948;28;99214;-76
2023/01/29 05:33:57;;;;;;;28.13;21.58;;;;;;;;;;4876384;28;99592;-76
2023/01/29 05:36:25;;;;;;;25.30;21.40;;;;;;;;;;4883506;28;99765;-76
2023/01/29 05:38:52;;;;;;;33.58;23.73;;;;;;;;;;4881921;28;98243;-77
2023/01/29 05:41:18;;;;;;;28.08;22.77;;;;;;;;;;4880010;28;98762;-77
2023/01/29 05:43:45;;;;;;;28.17;22.35;;;;;;;;;;4886042;28;100002;-75
2023/01/29 05:46:11;;;;;;;30.02;21.95;;;;;;;;;;4887872;28;98419;-75
2023/01/29 05:48:38;;;;;;;29.48;22.30;;;;;;;;;;4885912;28;98971;-76
2023/01/29 05:51:04;;;;;;;32.65;22.05;;;;;;;;;;4879562;28;99004;-76
2023/01/29 05:53:31;;;;;;;29.70;23.02;;;;;;;;;;4890202;28;98304;-76
2023/01/29 05:56:00;;;;;;;28.58;21.58;;;;;;;;;;4881645;28;99381;-76
2023/01/29 05:58:26;;;;;;;31.08;22.98;;;;;;;;;;4872703;28;98322;-75
2023/01/29 06:00:52;;;;;;;33.95;22.23;;;;;;;;;;4889455;28;98886;-77
2023/01/29 06:03:19;;;;;;;28.02;22.50;;;;;;;;;;4882994;28;100267;-77
2023/01/29 06:05:45;;;;;;;31.23;22.48;;;;;;;;;;4884026;28;99803;-76
2023/01/29 06:08:12;;;;;;;30.75;22.90;;;;;;;;;;4885713;28;98565;-76
2023/01/29 06:10:38;;;;;;;29.38;23.10;;;;;;;;;;4884106;28;99806;-76
2023/01/29 06:13:05;;;;;;;30.98;22.85;;;;;;;;;;4884726;28;98129;-76
2023/01/29 06:15:32;;;;;;;29.13;22.80;;;;;;;;;;4883217;28;99411;-77
2023/01/29 06:17:58;;;;;;;27.55;22.17;;;;;;;;;;4888734;28;98652;-77
2023/01/29 06:20:25;;;;;;;27.85;21.48;;;;;;;;;;4879790;28;99982;-76
2023/01/29 06:22:51;;;;;;;27.73;22.60;;;;;;;;;;4875121;28;98939;-76
2023/01/29 06:25:17;;;;;;;26.23;21.60;;;;;;;;;;4873416;28;98278;-76
2023/01/29 06:27:44;;;;;;;27.50;21.05;;;;;;;;;;4890541;28;98740;-75
2023/01/29 06:30:10;;;;;;;31.95;22.27;;;;;;;;;;4888201;28;99991;-76
2023/01/29 06:32:37;;;;;;;28.10;21.95;;;;;;;;;;4884577;28;98409;-76
2023/01/29 06:35:03;;;;;;;23.92;21.15;;;;;;;;;;4883437;28;99740;-76
2023/01/29 06:37:30;;;;;;;26.17;21.00;;;;;;;;;;4882489;28;99048;-76
2023/01/29 06:39:56;;;;;;;25.65;20.20;;;;;;;;;;4880669;28;99879;-77
2023/01/29 06:42:26;;;;;;;26.33;20.23;;;;;;;;;;4882415;28;100304;-79
2023/01/29 06:44:53;;;;;;;24.38;19.02;;;;;;;;;;4877075;28;98422;-77
2023/01/29 06:47:20;;;;;;;25.17;20.67;;;;;;;;;;4887548;28;98656;-79
2023/01/29 06:49:46;;;;;;;28.25;20.58;;;;;;;;;;4882769;28;100478;-79
2023/01/29 06:52:12;;;;;;;24.45;19.73;;;;;;;;;;4888722;28;98374;-78
2023/01/29 06:54:39;;;;;;;21.58;19.23;;;;;;;;;;4887393;28;99705;-78
2023/01/29 06:57:05;;;;;;;26.80;20.35;;;;;;;;;;4888982;28;99584;-79
2023/01/29 06:59:32;;;;;;;24.80;19.20;;;;;;;;;;4891810;28;99755;-78
2023/01/29 07:01:58;;;;;;;22.65;19.50;;;;;;;;;;4889394;28;99186;-79
2023/01/29 07:04:25;;;;;;;23.42;18.83;;;;;;;;;;4876911;28;98444;-78
2023/01/29 07:06:51;;;;;;;24.27;18.75;;;;;;;;;;4890392;28;98516;-78
2023/01/29 07:09:17;;;;;;;26.73;19.35;;;;;;;;;;4879443;28;100063;-79
2023/01/29 07:11:44;;;;;;;23.00;19.23;;;;;;;;;;4889714;28;98291;-78
2023/01/29 07:14:10;;;;;;;24.13;20.85;;;;;;;;;;4883284;28;98717;-80
2023/01/29 07:16:36;;;;;;;24.25;19.40;;;;;;;;;;4877648;28;100122;-78
2023/01/29 07:19:03;;;;;;;24.45;17.58;;;;;;;;;;4871713;28;98447;-77
2023/01/29 07:21:29;;;;;;;27.38;19.40;;;;;;;;;;4881541;28;99269;-77
2023/01/29 07:23:56;;;;;;;22.77;19.42;;;;;;;;;;4876609;28;98459;-77
2023/01/29 07:26:22;;;;;;;24.35;19.13;;;;;;;;;;4889307;28;98556;-79
2023/01/29 07:28:49;;;;;;;25.17;16.55;;;;;;;;;;4880918;28;100154;-76
2023/01/29 07:31:15;;;;;;;23.60;18.50;;;;;;;;;;4885041;28;98236;-76
2023/01/29 07:33:43;;;;;;;22.50;17.60;;;;;;;;;;4870654;28;99622;-75
2023/01/29 07:36:10;;;;;;;17.92;16.02;;;;;;;;;;4873832;28;99094;-77
2023/01/29 07:38:36;;;;;;;27.05;17.67;;;;;;;;;;4878195;28;98332;-74
2023/01/29 07:41:02;;;;;;;21.95;16.95;;;;;;;;;;4878842;28;98576;-74
2023/01/29 07:43:29;;;;;;;21.85;17.90;;;;;;;;;;4886276;28;100928;-72
2023/01/29 07:45:55;;;;;;;19.63;17.52;;;;;;;;;;4876160;28;99078;-74
2023/01/29 07:48:22;;;;;;;21.55;16.42;;;;;;;;;;4882073;28;99196;-76
2023/01/29 07:50:55;;;;;;;21.75;17.88;;;;;;;;;;4882223;28;98525;-75
2023/01/29 07:53:21;;;;;;;;;;;;;;;;;;4874923;28;99524;-75
2023/01/29 07:55:48;;;;;;;20.17;16.90;;;;;;;;;;4879030;28;100033;-77
2023/01/29 07:58:14;;;;;;;18.20;16.27;;;;;;;;;;4882799;28;98381;-76
2023/01/29 08:00:41;;;;;;;22.10;16.98;;;;;;;;;;4881187;28;99760;-75
2023/01/29 08:03:12;;;;;;;20.38;16.67;;;;;;;;;;4883187;28;99919;-75
2023/01/29 08:05:38;;;;;;;23.08;18.40;;;;;;;;;;4890587;28;98316;-74
2023/01/29 08:08:04;;;;;;;22.38;18.38;;;;;;;;;;4883839;28;99878;-77
2023/01/29 08:10:37;;;;;;;26.55;18.38;;;;;;;;;;4881888;28;98460;-75
2023/01/29 08:13:03;;;;;;;22.58;18.52;;;;;;;;;;4884150;28;100102;-73
2023/01/29 08:15:30;;;;;;;25.58;17.80;;;;;;;;;;4883873;28;100227;-74
2023/01/29 08:17:57;;;;;;;20.10;16.92;;;;;;;;;;4879211;28;99555;-75
2023/01/29 08:20:24;;;;;;;23.63;17.15;;;;;;;;;;4888451;28;99076;-75
2023/01/29 08:22:57;;;;;;;21.73;17.02;;;;;;;;;;4883127;28;99010;-74
2023/01/29 08:25:23;;;;;;;20.40;17.77;;;;;;;;;;4888544;28;98336;-74
2023/01/29 08:27:50;;;;;;;20.48;16.30;;;;;;;;;;4891940;28;99044;-74
2023/01/29 08:30:17;;;;;;;22.00;17.13;;;;;;;;;;4891070;28;98290;-74
2023/01/29 08:32:43;;;;;;;19.83;16.25;;;;;;;;;;4891432;28;98443;-74
2023/01/29 08:35:10;;;;;;;18.55;16.05;;;;;;;;;;4891410;28;99959;-75
2023/01/29 08:37:36;;;;;;;21.67;16.98;;;;;;;;;;4891212;28;98270;-76
2023/01/29 08:40:03;;;;;;;23.35;16.63;;;;;;;;;;4892301;28;98951;-73
2023/01/29 08:42:29;;;;;;;22.27;16.88;;;;;;;;;;4890550;28;100425;-75
2023/01/29 08:44:56;;;;;;;20.20;17.33;;;;;;;;;;4885173;28;98812;-75
2023/01/29 08:47:22;;;;;;;22.13;17.73;;;;;;;;;;4889004;28;98638;-75
2023/01/29 08:49:49;;;;;;;22.98;17.17;;;;;;;;;;4891309;28;98365;-76
2023/01/29 08:52:15;;;;;;;23.42;18.60;;;;;;;;;;4891750;28;98640;-75
2023/01/29 08:54:41;;;;;;;21.85;17.15;;;;;;;;;;4886116;28;99063;-75
2023/01/29 08:57:08;;;;;;;21.98;17.70;;;;;;;;;;4890394;28;98394;-75
2023/01/29 08:59:34;;;;;;;22.33;17.38;;;;;;;;;;4892603;28;99540;-75
2023/01/29 09:02:01;;;;;;;24.20;18.02;;;;;;;;;;4891909;28;100008;-74
2023/01/29 09:04:27;;;;;;;20.48;17.15;;;;;;;;;;4891275;28;98415;-76
2023/01/29 09:06:53;;;;;;;25.73;18.08;;;;;;;;;;4891959;28;99492;-74
2023/01/29 09:09:20;;;;;;;19.10;17.10;;;;;;;;;;4894853;28;100076;-75
2023/01/29 09:11:46;;;;;;;19.45;16.50;;;;;;;;;;4891108;28;99452;-75
2023/01/29 09:14:13;;;;;;;18.30;16.38;;;;;;;;;;4890919;28;100080;-75
2023/01/29 09:16:39;;;;;;;21.75;16.98;;;;;;;;;;4879308;28;98319;-74
2023/01/29 09:19:07;;;;;;;19.25;16.20;;;;;;;;;;4884602;28;99621;-74
2023/01/29 09:21:33;;;;;;;24.95;17.75;;;;;;;;;;4871787;28;99071;-75
2023/01/29 09:23:59;;;;;;;19.00;16.92;;;;;;;;;;4878615;28;98286;-75
2023/01/29 09:26:26;;;;;;;22.15;15.43;;;;;;;;;;4872869;28;99515;-74
2023/01/29 09:28:52;;;;;;;23.83;16.15;;;;;;;;;;4874818;28;99064;-74
2023/01/29 09:31:19;;;;;;;21.52;16.63;;;;;;;;;;4883642;28;98340;-74
2023/01/29 09:33:45;;;;;;;22.67;16.85;;;;;;;;;;4871948;28;100382;-75
2023/01/29 09:36:13;;;;;;;19.90;16.77;;;;;;;;;;4876652;28;99113;-74
2023/01/29 09:38:39;;;;;;;23.10;16.23;;;;;;;;;;4888954;28;98796;-75
2023/01/29 09:41:24;;;;;;;20.63;16.23;;;;;;;;;;4878163;28;99681;-75
2023/01/29 09:43:55;;;;;;;22.30;17.52;;;;;;;;;;4872917;28;98070;-74
2023/01/29 09:46:24;;;;;;;23.50;16.65;;;;;;;;;;4883030;28;99396;-74
2023/01/29 09:48:56;;;;;;;25.52;17.33;;;;;;;;;;4882764;28;99392;-76
2023/01/29 09:51:29;;;;;;;20.73;16.60;;;;;;;;;;4891327;28;98229;-76
2023/01/29 09:53:56;;;;;;;;;;;;;;;;;;4893812;28;99340;-75
2023/01/29 09:56:27;;;;;;;22.30;16.83;;;;;;;;;;4878967;28;115256;-75
2023/01/29 09:58:56;;;;;;;16.02;11.52;;;;;;;;;;4874000;28;100528;-77
2023/01/29 10:01:31;;;;;;;21.52;17.23;;;;;;;;;;4883041;28;100051;-76
2023/01/29 10:04:16;;;;;;;17.55;14.75;;;;;;;;;;4892164;28;98192;-75
2023/01/29 10:06:46;;;;;;;27.83;17.60;;;;;;;;;;4882501;28;99793;-74
2023/01/29 10:09:31;;;;;;;21.25;17.42;;;;;;;;;;4874063;28;100331;-74
2023/01/29 10:12:00;;;;;;;19.02;16.33;;;;;;;;;;4884394;28;98401;-74
2023/01/29 10:14:36;;;;;;;25.90;18.20;;;;;;;;;;4883651;28;99475;-75
2023/01/29 10:17:21;;;;;;;19.52;17.33;;;;;;;;;;4892926;28;99834;-74
2023/01/29 10:20:08;;;;;;;20.77;17.95;;;;;;;;;;4883009;28;99551;-75
2023/01/29 10:22:44;;;;;;;22.52;18.40;;;;;;;;;;4876288;28;100020;-75
2023/01/29 10:25:12;;;;;;;20.27;16.77;;;;;;;;;;4881381;28;98328;-75
2023/01/29 10:27:40;;;;;;;20.05;17.05;;;;;;;;;;4884260;28;99362;-74
2023/01/29 10:30:18;;;;;;;21.90;17.52;;;;;;;;;;4882996;28;100068;-75
2023/01/29 10:32:45;;;;;;;26.25;17.48;;;;;;;;;;4884060;28;98229;-76
2023/01/29 10:35:12;;;;;;;21.75;17.85;;;;;;;;;;4883729;28;99573;-74
2023/01/29 10:37:40;;;;;;;22.27;19.08;;;;;;;;;;4875395;28;100398;-75
2023/01/29 10:40:26;;;;;;;20.55;16.52;;;;;;;;;;4882524;28;99394;-75
2023/01/29 10:42:52;;;;;;;21.75;16.13;;;;;;;;;;4882129;28;99981;-75
2023/01/29 10:45:29;;;;;;;20.35;17.85;;;;;;;;;;4883367;28;98402;-74
2023/01/29 10:48:14;;;;;;;22.35;18.50;;;;;;;;;;4883096;28;100086;-74
2023/01/29 10:50:40;;;;;;;22.85;18.80;;;;;;;;;;4877011;28;100331;-74
2023/01/29 10:53:16;;;;;;;21.85;18.67;;;;;;;;;;4872283;28;99381;-73
2023/01/29 10:56:01;;;;;;;24.52;19.40;;;;;;;;;;4886990;28;99070;-74
2023/01/29 10:58:36;;;;;;;24.42;18.15;;;;;;;;;;4888683;28;100187;-74
2023/01/29 11:01:02;;;;;;;24.15;18.88;;;;;;;;;;4891320;28;98355;-74
2023/01/29 11:03:30;;;;;;;24.20;20.05;;;;;;;;;;4888217;28;99986;-74
2023/01/29 11:06:03;;;;;;;24.15;19.48;;;;;;;;;;4889189;28;99483;-74
2023/01/29 11:08:51;;;;;;;23.60;20.00;;;;;;;;;;4894561;28;99434;-74
2023/01/29 11:11:20;;;;;;;23.75;18.90;;;;;;;;;;4884093;28;100038;-74
2023/01/29 11:13:47;;;;;;;22.48;19.58;;;;;;;;;;4889545;28;98294;-74
2023/01/29 11:16:13;;;;;;;24.85;19.33;;;;;;;;;;4894599;28;99602;-74
2023/01/29 11:18:50;;;;;;;23.90;19.88;;;;;;;;;;4891104;28;99496;-74
2023/01/29 11:21:16;;;;;;;24.45;19.55;;;;;;;;;;4884591;28;99200;-74
2023/01/29 11:23:43;;;;;;;27.70;20.25;;;;;;;;;;4884091;28;98791;-74
2023/01/29 11:26:11;;;;;;;25.85;20.35;;;;;;;;;;4871405;28;98343;-76
2023/01/29 11:28:41;;;;;;;25.73;20.80;;;;;;;;;;4870861;28;99539;-75
2023/01/29 11:31:34;;;;;;;24.40;20.45;;;;;;;;;;4877500;28;99023;-74
2023/01/29 11:34:03;;;;;;;24.80;20.63;;;;;;;;;;4870272;28;98232;-74
2023/01/29 11:36:37;;;;;;;33.72;21.02;;;;;;;;;;4870946;28;98562;-74
2023/01/29 11:39:20;;;;;;;23.63;19.05;;;;;;;;;;4885023;28;100059;-74
2023/01/29 11:42:10;;;;;;;25.08;21.50;;;;;;;;;;4887292;28;99163;-74
2023/01/29 11:44:38;;;;;;;25.35;20.98;;;;;;;;;;4877623;28;100203;-74
2023/01/29 11:47:11;;;;;;;25.27;22.05;;;;;;;;;;4884136;28;100336;-74
2023/01/29 11:49:38;;;;;;;27.48;22.05;;;;;;;;;;4877072;28;98727;-75
2023/01/29 11:52:07;;;;;;;31.10;21.45;;;;;;;;;;4876433;28;99927;-74
2023/01/29 11:54:37;;;;;;;28.13;21.95;;;;;;;;;;4879742;28;98363;-74
2023/01/29 11:57:03;;;;;;;31.58;23.13;;;;;;;;;;4869563;28;99782;-74
2023/01/29 11:59:36;;;;;;;35.85;24.33;;;;;;;;;;4874057;28;99040;-74
2023/01/29 12:02:04;;;;;;;34.75;21.25;;;;;;;;;;4886654;28;98204;-74
2023/01/29 12:04:30;;;;;;;32.10;23.35;;;;;;;;;;4891530;28;100168;-74
2023/01/29 12:06:57;;;;;;;33.40;24.20;;;;;;;;;;4884367;28;100323;-74
2023/01/29 12:09:27;;;;;;;29.17;23.73;;;;;;;;;;4895035;28;98775;-74
2023/01/29 12:11:54;;;;;;;35.20;23.05;;;;;;;;;;4891731;28;100086;-74
2023/01/29 12:14:34;;;;;;;33.38;24.00;;;;;;;;;;4892037;28;99125;-73
2023/01/29 12:17:01;;;;;;;33.50;24.30;;;;;;;;;;4891882;28;99431;-74
2023/01/29 12:19:33;;;;;;;31.30;24.88;;;;;;;;;;4891997;28;100094;-74
2023/01/29 12:22:04;;;;;;;35.40;22.95;;;;;;;;;;4872507;28;98272;-73
2023/01/29 12:24:34;;;;;;;27.58;23.75;;;;;;;;;;4890234;28;99362;-72
2023/01/29 12:27:20;;;;;;;29.35;24.13;;;;;;;;;;4896689;28;100898;-74
2023/01/29 12:29:46;;;;;;;34.83;24.85;;;;;;;;;;4891431;28;98617;-74
2023/01/29 12:32:15;;;;;;;31.10;24.60;;;;;;;;;;4894885;28;98913;-72
2023/01/29 12:34:47;;;;;;;31.17;24.88;;;;;;;;;;4891488;28;98452;-72
2023/01/29 12:37:49;;;;;;;29.25;24.50;;;;;;;;;;4891820;28;100035;-73
2023/01/29 12:40:17;;;;;;;29.48;23.65;;;;;;;;;;4868882;28;99264;-73
2023/01/29 12:42:46;;;;;;;32.10;26.42;;;;;;;;;;4886929;28;98495;-73
2023/01/29 12:45:17;;;;;;;29.92;24.15;;;;;;;;;;4891553;28;99389;-73
2023/01/29 12:47:57;;;;;;;30.13;24.27;;;;;;;;;;4897487;28;99947;-74
2023/01/29 12:50:24;;;;;;;30.27;23.15;;;;;;;;;;4891222;28;98299;-74
2023/01/29 12:53:10;;;;;;;30.88;24.67;;;;;;;;;;4894701;28;99851;-74
2023/01/29 12:55:41;;;;;;;32.90;24.52;;;;;;;;;;4887210;28;98337;-74
2023/01/29 12:58:11;;;;;;;30.00;24.60;;;;;;;;;;4886856;28;98570;-74
2023/01/29 13:00:39;;;;;;;32.67;25.05;;;;;;;;;;4891302;28;100203;-74
2023/01/29 13:03:17;;;;;;;32.45;24.55;;;;;;;;;;4890763;28;99038;-73
2023/01/29 13:05:51;;;;;;;30.67;24.95;;;;;;;;;;4896267;28;99576;-74
2023/01/29 13:08:26;;;;;;;31.80;22.23;;;;;;;;;;4890681;28;100269;-74
2023/01/29 13:10:53;;;;;;;30.45;23.75;;;;;;;;;;4888620;28;98624;-74
2023/01/29 13:13:23;;;;;;;26.55;20.48;;;;;;;;;;4890858;28;100031;-74
2023/01/29 13:15:51;;;;;;;31.25;25.40;;;;;;;;;;4894535;28;100308;-75
2023/01/29 13:18:28;;;;;;;34.35;23.42;;;;;;;;;;4894872;28;98589;-73
2023/01/29 13:20:54;;;;;;;30.92;24.13;;;;;;;;;;4889808;28;100067;-74
2023/01/29 13:23:23;;;;;;;34.72;23.45;;;;;;;;;;4890215;28;98328;-74
2023/01/29 13:25:53;;;;;;;32.70;24.15;;;;;;;;;;4890414;28;98625;-74
2023/01/29 13:28:24;;;;;;;26.35;21.30;;;;;;;;;;4889424;28;99005;-74
2023/01/29 13:31:09;;;;;;;34.58;23.85;;;;;;;;;;4891924;28;98549;-75
2023/01/29 13:33:36;;;;;;;50.42;25.73;;;;;;;;;;4891398;28;99771;-73
2023/01/29 13:36:03;;;;;;;25.30;19.48;;;;;;;;;;4890080;28;99342;-75
2023/01/29 13:38:32;;;;;;;31.45;24.10;;;;;;;;;;4892676;28;98271;-74
2023/01/29 13:41:07;;;;;;;33.72;23.80;;;;;;;;;;4884429;28;99149;-74
2023/01/29 13:43:38;;;;;;;28.80;23.50;;;;;;;;;;4888676;28;98443;-74
2023/01/29 13:46:12;;;;;;;28.88;24.25;;;;;;;;;;4886958;28;99535;-75
2023/01/29 13:48:43;;;;;;;32.33;24.23;;;;;;;;;;4886465;28;99183;-75
2023/01/29 13:51:18;;;;;;;27.02;24.05;;;;;;;;;;4884501;28;98299;-74
2023/01/29 13:53:53;;;;;;;29.45;23.30;;;;;;;;;;4892340;28;99574;-74
2023/01/29 13:56:31;;;;;;;30.77;23.55;;;;;;;;;;4888653;28;99832;-75
2023/01/29 13:58:59;;;;;;;31.27;23.35;;;;;;;;;;4875097;28;98422;-74
2023/01/29 14:01:45;;;;;;;28.35;23.55;;;;;;;;;;4876033;28;100749;-74
2023/01/29 14:04:30;;;;;;;30.00;23.40;;;;;;;;;;4884076;28;99118;-74
2023/01/29 14:06:58;;;;;;;29.80;23.27;;;;;;;;;;4884219;28;99951;-74
2023/01/29 14:09:48;;;;;;;28.30;22.45;;;;;;;;;;4888906;28;99963;-74
2023/01/29 14:12:20;;;;;;;28.23;23.13;;;;;;;;;;4857248;28;100164;-74
2023/01/29 14:14:57;;;;;;;31.70;20.40;;;;;;;;;;4882986;28;99612;-74
2023/01/29 14:17:25;;;;;;;29.55;22.90;;;;;;;;;;4871890;28;99594;-74
2023/01/29 14:19:55;;;;;;;27.67;21.55;;;;;;;;;;4891595;28;98769;-74
2023/01/29 14:22:25;;;;;;;28.50;23.92;;;;;;;;;;4884004;28;98693;-75
2023/01/29 14:24:53;;;;;;;26.13;20.77;;;;;;;;;;4886830;28;99056;-74
2023/01/29 14:27:21;;;;;;;25.00;22.08;;;;;;;;;;4885148;28;99865;-74
2023/01/29 14:29:50;;;;;;;29.30;22.90;;;;;;;;;;4890287;28;98948;-74
2023/01/29 14:32:19;;;;;;;27.48;24.52;;;;;;;;;;4882876;28;98278;-75
2023/01/29 14:34:58;;;;;;;32.95;22.60;;;;;;;;;;4871076;28;100115;-74
2023/01/29 14:37:27;;;;;;;35.85;21.27;;;;;;;;;;4883533;28;100305;-74
2023/01/29 14:39:56;;;;;;;28.75;21.67;;;;;;;;;;4881813;28;98292;-74
2023/01/29 14:42:33;;;;;;;24.83;21.48;;;;;;;;;;4883174;28;99497;-74
2023/01/29 14:45:27;;;;;;;23.23;20.13;;;;;;;;;;4873111;28;100161;-74
2023/01/29 14:47:56;;;;;;;26.02;21.02;;;;;;;;;;4880628;28;98290;-74
2023/01/29 14:50:27;;;;;;;26.63;22.55;;;;;;;;;;4889888;28;100273;-75
2023/01/29 14:53:00;;;;;;;28.60;21.58;;;;;;;;;;4886761;28;98353;-76
2023/01/29 14:55:34;;;;;;;29.58;21.38;;;;;;;;;;4884002;28;98982;-75
2023/01/29 14:58:01;;;;;;;24.23;20.88;;;;;;;;;;4892684;28;99651;-76
2023/01/29 15:00:33;;;;;;;27.10;22.52;;;;;;;;;;4889722;28;98366;-76
2023/01/29 15:03:01;;;;;;;25.58;20.60;;;;;;;;;;4887633;28;99529;-75